Sandwick, United Kingdom
Current Conditions -  °F | °C
As of 2:50 AM on Saturday 22 Nov 2014 (Local Time) from EGPB Reporting Station
Scattered Clouds Scattered Clouds  
Wind Chill: 40°   Ceiling: Unl
Heat Index: 48°   Visibility: 6mi
Dew Point: 45°   Wind: 28mph
Humidity: 87%   Direction: 130°SE
Pressure: 30"   Gusts: NA
Location:  60°N, 1.25°W
Report Text: EGPB 220250Z AUTO 13024KT 9999 SCT015/// 09/07 Q1016
Loading
Personal Weather Stations






























Interactive Weather Map New forecast layout! Learn more

10-Day Weather Forecast

Advertisements
Track Severe Weather on mobile